sensor_id;sensor_type;location;lat;lon;timestamp;temperature;humidity
12843;DHT22;35724;49.324;-123.118;2023-06-22T00:07:27;26.10;56.80
12843;DHT22;35724;49.324;-123.118;2023-06-22T00:17:36;26.10;56.40
12843;DHT22;35724;49.324;-123.118;2023-06-22T00:27:43;26.30;55.90
12843;DHT22;35724;49.324;-123.118;2023-06-22T00:37:51;26.30;55.80
12843;DHT22;35724;49.324;-123.118;2023-06-22T00:48:07;26.30;55.80
12843;DHT22;35724;49.324;-123.118;2023-06-22T00:58:16;26.20;55.90
12843;DHT22;35724;49.324;-123.118;2023-06-22T01:08:31;26.30;55.90
12843;DHT22;35724;49.324;-123.118;2023-06-22T01:18:45;26.20;55.90
12843;DHT22;35724;49.324;-123.118;2023-06-22T01:28:57;26.30;55.50
12843;DHT22;35724;49.324;-123.118;2023-06-22T01:39:06;26.30;55.50
12843;DHT22;35724;49.324;-123.118;2023-06-22T01:49:14;26.20;56.00
12843;DHT22;35724;49.324;-123.118;2023-06-22T01:59:25;26.20;56.30
12843;DHT22;35724;49.324;-123.118;2023-06-22T02:09:39;26.20;56.60
12843;DHT22;35724;49.324;-123.118;2023-06-22T02:19:48;26.20;56.70
12843;DHT22;35724;49.324;-123.118;2023-06-22T02:29:58;26.20;56.90
12843;DHT22;35724;49.324;-123.118;2023-06-22T02:40:06;26.20;57.40
12843;DHT22;35724;49.324;-123.118;2023-06-22T02:50:15;26.30;56.50
12843;DHT22;35724;49.324;-123.118;2023-06-22T03:00:22;26.20;56.90
12843;DHT22;35724;49.324;-123.118;2023-06-22T03:10:37;26.20;56.90
12843;DHT22;35724;49.324;-123.118;2023-06-22T03:20:44;26.30;57.00
12843;DHT22;35724;49.324;-123.118;2023-06-22T03:30:53;26.20;57.30
12843;DHT22;35724;49.324;-123.118;2023-06-22T03:41:08;26.40;56.80
12843;DHT22;35724;49.324;-123.118;2023-06-22T03:51:27;26.50;56.70
12843;DHT22;35724;49.324;-123.118;2023-06-22T04:01:34;26.50;56.80
12843;DHT22;35724;49.324;-123.118;2023-06-22T04:11:43;26.50;56.80
12843;DHT22;35724;49.324;-123.118;2023-06-22T04:21:50;26.40;57.20
12843;DHT22;35724;49.324;-123.118;2023-06-22T04:32:01;26.40;57.30
12843;DHT22;35724;49.324;-123.118;2023-06-22T04:42:18;26.40;57.40
12843;DHT22;35724;49.324;-123.118;2023-06-22T04:52:27;26.40;57.60
12843;DHT22;35724;49.324;-123.118;2023-06-22T05:02:34;26.20;57.90
12843;DHT22;35724;49.324;-123.118;2023-06-22T05:12:43;26.30;58.60
12843;DHT22;35724;49.324;-123.118;2023-06-22T05:22:53;26.40;58.60
12843;DHT22;35724;49.324;-123.118;2023-06-22T05:33:02;26.50;58.70
12843;DHT22;35724;49.324;-123.118;2023-06-22T05:43:09;26.50;58.80
12843;DHT22;35724;49.324;-123.118;2023-06-22T05:53:17;26.70;57.90
12843;DHT22;35724;49.324;-123.118;2023-06-22T06:03:24;26.70;57.60
12843;DHT22;35724;49.324;-123.118;2023-06-22T06:13:35;26.70;57.30
12843;DHT22;35724;49.324;-123.118;2023-06-22T06:23:42;26.70;57.20
12843;DHT22;35724;49.324;-123.118;2023-06-22T06:33:50;26.70;57.30
12843;DHT22;35724;49.324;-123.118;2023-06-22T06:43:58;26.60;57.30
12843;DHT22;35724;49.324;-123.118;2023-06-22T06:54:07;26.70;57.30
12843;DHT22;35724;49.324;-123.118;2023-06-22T07:04:14;26.70;57.30
12843;DHT22;35724;49.324;-123.118;2023-06-22T07:14:23;26.70;57.30
12843;DHT22;35724;49.324;-123.118;2023-06-22T07:24:30;26.70;57.30
12843;DHT22;35724;49.324;-123.118;2023-06-22T07:34:39;26.70;57.30
12843;DHT22;35724;49.324;-123.118;2023-06-22T07:44:46;26.80;57.30
12843;DHT22;35724;49.324;-123.118;2023-06-22T07:54:54;26.80;57.30
12843;DHT22;35724;49.324;-123.118;2023-06-22T08:05:01;26.80;57.30
12843;DHT22;35724;49.324;-123.118;2023-06-22T08:15:26;26.80;57.30
12843;DHT22;35724;49.324;-123.118;2023-06-22T08:25:37;26.80;57.30
12843;DHT22;35724;49.324;-123.118;2023-06-22T08:35:46;26.80;57.30
12843;DHT22;35724;49.324;-123.118;2023-06-22T08:45:53;26.80;57.20
12843;DHT22;35724;49.324;-123.118;2023-06-22T08:56:02;26.90;57.30
12843;DHT22;35724;49.324;-123.118;2023-06-22T09:06:09;26.90;57.20
12843;DHT22;35724;49.324;-123.118;2023-06-22T09:16:18;26.90;57.20
12843;DHT22;35724;49.324;-123.118;2023-06-22T09:26:25;26.90;57.10
12843;DHT22;35724;49.324;-123.118;2023-06-22T09:36:33;26.90;57.10
12843;DHT22;35724;49.324;-123.118;2023-06-22T09:46:40;27.00;57.20
12843;DHT22;35724;49.324;-123.118;2023-06-22T09:56:49;27.00;57.10
12843;DHT22;35724;49.324;-123.118;2023-06-22T10:06:56;27.00;57.10
12843;DHT22;35724;49.324;-123.118;2023-06-22T10:17:05;27.00;57.10
12843;DHT22;35724;49.324;-123.118;2023-06-22T10:27:13;27.00;57.10
12843;DHT22;35724;49.324;-123.118;2023-06-22T10:37:23;27.00;57.10
12843;DHT22;35724;49.324;-123.118;2023-06-22T10:47:30;27.10;57.00
12843;DHT22;35724;49.324;-123.118;2023-06-22T10:57:38;27.10;57.00
12843;DHT22;35724;49.324;-123.118;2023-06-22T11:07:47;27.10;57.00
12843;DHT22;35724;49.324;-123.118;2023-06-22T11:17:57;27.10;57.00
12843;DHT22;35724;49.324;-123.118;2023-06-22T11:28:04;27.10;56.90
12843;DHT22;35724;49.324;-123.118;2023-06-22T11:38:13;27.10;56.80
12843;DHT22;35724;49.324;-123.118;2023-06-22T11:48:20;27.10;56.80
12843;DHT22;35724;49.324;-123.118;2023-06-22T11:58:28;27.20;56.90
12843;DHT22;35724;49.324;-123.118;2023-06-22T12:08:35;27.20;56.90
12843;DHT22;35724;49.324;-123.118;2023-06-22T12:18:47;27.20;56.80
12843;DHT22;35724;49.324;-123.118;2023-06-22T12:28:53;27.20;56.80
12843;DHT22;35724;49.324;-123.118;2023-06-22T12:39:02;27.20;56.80
12843;DHT22;35724;49.324;-123.118;2023-06-22T12:49:09;27.20;56.80
12843;DHT22;35724;49.324;-123.118;2023-06-22T12:59:18;27.20;56.70
12843;DHT22;35724;49.324;-123.118;2023-06-22T13:09:24;27.20;56.70
12843;DHT22;35724;49.324;-123.118;2023-06-22T13:19:33;27.30;56.70
12843;DHT22;35724;49.324;-123.118;2023-06-22T13:29:40;27.30;56.70
12843;DHT22;35724;49.324;-123.118;2023-06-22T13:39:48;27.30;56.70
12843;DHT22;35724;49.324;-123.118;2023-06-22T13:49:55;27.40;56.70
12843;DHT22;35724;49.324;-123.118;2023-06-22T14:00:05;27.40;56.70
12843;DHT22;35724;49.324;-123.118;2023-06-22T14:10:15;27.40;56.60
12843;DHT22;35724;49.324;-123.118;2023-06-22T14:20:24;27.40;56.60
12843;DHT22;35724;49.324;-123.118;2023-06-22T14:30:32;27.50;56.70
12843;DHT22;35724;49.324;-123.118;2023-06-22T14:40:41;27.60;56.00
12843;DHT22;35724;49.324;-123.118;2023-06-22T14:51:08;27.60;56.70
12843;DHT22;35724;49.324;-123.118;2023-06-22T15:01:21;27.60;56.60
12843;DHT22;35724;49.324;-123.118;2023-06-22T15:11:28;27.50;56.80
12843;DHT22;35724;49.324;-123.118;2023-06-22T15:21:37;27.50;56.90
12843;DHT22;35724;49.324;-123.118;2023-06-22T15:32:19;27.50;54.80
12843;DHT22;35724;49.324;-123.118;2023-06-22T15:42:41;27.40;55.10
12843;DHT22;35724;49.324;-123.118;2023-06-22T15:52:48;27.30;55.70
12843;DHT22;35724;49.324;-123.118;2023-06-22T16:02:58;27.30;56.00
12843;DHT22;35724;49.324;-123.118;2023-06-22T16:13:05;27.30;56.20
12843;DHT22;35724;49.324;-123.118;2023-06-22T16:23:14;27.40;56.40
12843;DHT22;35724;49.324;-123.118;2023-06-22T16:33:20;27.40;56.60
12843;DHT22;35724;49.324;-123.118;2023-06-22T16:43:32;27.50;56.20
12843;DHT22;35724;49.324;-123.118;2023-06-22T16:53:39;27.50;56.00
12843;DHT22;35724;49.324;-123.118;2023-06-22T17:03:54;27.60;55.80
12843;DHT22;35724;49.324;-123.118;2023-06-22T17:14:03;27.60;55.70
12843;DHT22;35724;49.324;-123.118;2023-06-22T17:24:16;27.60;58.00
12843;DHT22;35724;49.324;-123.118;2023-06-22T17:34:27;27.50;58.30
12843;DHT22;35724;49.324;-123.118;2023-06-22T17:44:36;27.20;58.30
12843;DHT22;35724;49.324;-123.118;2023-06-22T17:54:43;27.00;59.30
12843;DHT22;35724;49.324;-123.118;2023-06-22T18:05:05;27.00;59.40
12843;DHT22;35724;49.324;-123.118;2023-06-22T18:15:13;27.00;58.40
12843;DHT22;35724;49.324;-123.118;2023-06-22T18:25:22;26.80;58.20
12843;DHT22;35724;49.324;-123.118;2023-06-22T18:35:29;26.70;58.80
12843;DHT22;35724;49.324;-123.118;2023-06-22T18:45:39;26.80;59.00
12843;DHT22;35724;49.324;-123.118;2023-06-22T18:55:50;26.90;58.80
12843;DHT22;35724;49.324;-123.118;2023-06-22T19:05:59;27.00;58.70
12843;DHT22;35724;49.324;-123.118;2023-06-22T19:16:08;27.10;58.60
12843;DHT22;35724;49.324;-123.118;2023-06-22T19:26:19;27.20;58.40
12843;DHT22;35724;49.324;-123.118;2023-06-22T19:36:31;26.80;57.50
12843;DHT22;35724;49.324;-123.118;2023-06-22T19:46:40;26.30;58.50
12843;DHT22;35724;49.324;-123.118;2023-06-22T19:56:49;26.00;59.00
12843;DHT22;35724;49.324;-123.118;2023-06-22T20:07:04;25.90;59.20
12843;DHT22;35724;49.324;-123.118;2023-06-22T20:17:15;25.60;59.60
12843;DHT22;35724;49.324;-123.118;2023-06-22T20:27:25;25.40;60.80
12843;DHT22;35724;49.324;-123.118;2023-06-22T20:37:32;25.30;62.10
12843;DHT22;35724;49.324;-123.118;2023-06-22T20:47:41;25.50;61.40
12843;DHT22;35724;49.324;-123.118;2023-06-22T20:57:49;25.50;60.80
12843;DHT22;35724;49.324;-123.118;2023-06-22T21:07:58;25.40;60.70
12843;DHT22;35724;49.324;-123.118;2023-06-22T21:18:05;25.20;61.00
12843;DHT22;35724;49.324;-123.118;2023-06-22T21:28:14;25.10;61.10
12843;DHT22;35724;49.324;-123.118;2023-06-22T21:38:22;25.10;61.40
12843;DHT22;35724;49.324;-123.118;2023-06-22T21:48:30;25.20;61.20
12843;DHT22;35724;49.324;-123.118;2023-06-22T21:58:37;25.40;60.90
12843;DHT22;35724;49.324;-123.118;2023-06-22T22:08:46;25.20;61.40
12843;DHT22;35724;49.324;-123.118;2023-06-22T22:18:53;25.30;61.80
12843;DHT22;35724;49.324;-123.118;2023-06-22T22:29:03;25.60;61.80
12843;DHT22;35724;49.324;-123.118;2023-06-22T22:39:10;25.90;61.50
12843;DHT22;35724;49.324;-123.118;2023-06-22T22:49:19;26.00;61.90
12843;DHT22;35724;49.324;-123.118;2023-06-22T22:59:26;26.10;62.10
12843;DHT22;35724;49.324;-123.118;2023-06-22T23:09:34;26.20;62.10
12843;DHT22;35724;49.324;-123.118;2023-06-22T23:19:41;26.50;62.00
12843;DHT22;35724;49.324;-123.118;2023-06-22T23:29:51;26.50;62.00
12843;DHT22;35724;49.324;-123.118;2023-06-22T23:39:58;26.60;61.60
12843;DHT22;35724;49.324;-123.118;2023-06-22T23:50:07;26.60;61.30
